sensor_id;sensor_type;location;lat;lon;timestamp;P1;durP1;ratioP1;P2;durP2;ratioP2
21890;SDS011;11110;52.386;16.940;2023-09-18T00:02:18;17.05;;;9.30;;
21890;SDS011;11110;52.386;16.940;2023-09-18T00:04:46;14.75;;;8.30;;
21890;SDS011;11110;52.386;16.940;2023-09-18T00:07:17;18.05;;;9.15;;
21890;SDS011;11110;52.386;16.940;2023-09-18T00:09:46;16.77;;;8.90;;
21890;SDS011;11110;52.386;16.940;2023-09-18T00:12:15;18.67;;;9.27;;
21890;SDS011;11110;52.386;16.940;2023-09-18T00:14:47;21.92;;;9.73;;
21890;SDS011;11110;52.386;16.940;2023-09-18T00:17:16;13.55;;;8.38;;
21890;SDS011;11110;52.386;16.940;2023-09-18T00:19:46;23.38;;;9.52;;
21890;SDS011;11110;52.386;16.940;2023-09-18T00:22:16;15.73;;;8.77;;
21890;SDS011;11110;52.386;16.940;2023-09-18T00:24:46;15.20;;;8.70;;
21890;SDS011;11110;52.386;16.940;2023-09-18T00:27:15;21.08;;;9.20;;
21890;SDS011;11110;52.386;16.940;2023-09-18T00:29:44;14.30;;;8.82;;
21890;SDS011;11110;52.386;16.940;2023-09-18T00:32:12;19.02;;;9.18;;
21890;SDS011;11110;52.386;16.940;2023-09-18T00:34:41;16.50;;;9.38;;
21890;SDS011;11110;52.386;16.940;2023-09-18T00:37:09;15.40;;;8.43;;
21890;SDS011;11110;52.386;16.940;2023-09-18T00:39:41;21.25;;;9.68;;
21890;SDS011;11110;52.386;16.940;2023-09-18T00:42:10;18.02;;;9.07;;
21890;SDS011;11110;52.386;16.940;2023-09-18T00:44:40;17.98;;;9.15;;
21890;SDS011;11110;52.386;16.940;2023-09-18T00:47:09;14.93;;;8.93;;
21890;SDS011;11110;52.386;16.940;2023-09-18T00:49:38;19.55;;;9.98;;
21890;SDS011;11110;52.386;16.940;2023-09-18T00:52:09;19.73;;;9.02;;
21890;SDS011;11110;52.386;16.940;2023-09-18T00:54:38;19.88;;;8.88;;
21890;SDS011;11110;52.386;16.940;2023-09-18T00:57:10;15.45;;;8.50;;
21890;SDS011;11110;52.386;16.940;2023-09-18T00:59:40;20.17;;;9.38;;
21890;SDS011;11110;52.386;16.940;2023-09-18T01:02:08;16.55;;;8.27;;
21890;SDS011;11110;52.386;16.940;2023-09-18T01:04:38;13.55;;;8.25;;
21890;SDS011;11110;52.386;16.940;2023-09-18T01:07:10;18.75;;;9.63;;
21890;SDS011;11110;52.386;16.940;2023-09-18T01:09:39;17.63;;;9.48;;
21890;SDS011;11110;52.386;16.940;2023-09-18T01:15:26;14.70;;;8.50;;
21890;SDS011;11110;52.386;16.940;2023-09-18T01:17:58;17.55;;;8.93;;
21890;SDS011;11110;52.386;16.940;2023-09-18T01:20:27;17.25;;;8.90;;
21890;SDS011;11110;52.386;16.940;2023-09-18T01:22:57;19.13;;;9.52;;
21890;SDS011;11110;52.386;16.940;2023-09-18T01:25:26;18.73;;;9.43;;
21890;SDS011;11110;52.386;16.940;2023-09-18T01:27:54;18.90;;;9.70;;
21890;SDS011;11110;52.386;16.940;2023-09-18T01:30:22;16.67;;;8.43;;
21890;SDS011;11110;52.386;16.940;2023-09-18T01:32:51;19.52;;;8.50;;
21890;SDS011;11110;52.386;16.940;2023-09-18T01:35:21;16.95;;;9.38;;
21890;SDS011;11110;52.386;16.940;2023-09-18T01:37:57;24.17;;;10.65;;
21890;SDS011;11110;52.386;16.940;2023-09-18T01:40:28;25.40;;;9.77;;
21890;SDS011;11110;52.386;16.940;2023-09-18T01:42:58;19.75;;;9.43;;
21890;SDS011;11110;52.386;16.940;2023-09-18T01:45:26;18.33;;;8.90;;
21890;SDS011;11110;52.386;16.940;2023-09-18T01:47:55;21.70;;;9.07;;
21890;SDS011;11110;52.386;16.940;2023-09-18T01:50:23;18.13;;;8.10;;
21890;SDS011;11110;52.386;16.940;2023-09-18T01:52:52;16.75;;;8.68;;
21890;SDS011;11110;52.386;16.940;2023-09-18T01:55:22;18.08;;;8.80;;
21890;SDS011;11110;52.386;16.940;2023-09-18T01:57:51;21.27;;;9.32;;
21890;SDS011;11110;52.386;16.940;2023-09-18T02:00:20;19.35;;;9.10;;
21890;SDS011;11110;52.386;16.940;2023-09-18T02:02:49;17.70;;;9.20;;
21890;SDS011;11110;52.386;16.940;2023-09-18T02:05:39;17.02;;;8.75;;
21890;SDS011;11110;52.386;16.940;2023-09-18T02:08:09;20.98;;;9.43;;
21890;SDS011;11110;52.386;16.940;2023-09-18T02:10:39;17.33;;;8.80;;
21890;SDS011;11110;52.386;16.940;2023-09-18T02:13:07;17.58;;;9.27;;
21890;SDS011;11110;52.386;16.940;2023-09-18T02:15:37;21.10;;;9.38;;
21890;SDS011;11110;52.386;16.940;2023-09-18T02:18:07;24.85;;;9.60;;
21890;SDS011;11110;52.386;16.940;2023-09-18T02:20:39;14.43;;;8.30;;
21890;SDS011;11110;52.386;16.940;2023-09-18T02:23:08;21.88;;;8.77;;
21890;SDS011;11110;52.386;16.940;2023-09-18T02:25:38;16.25;;;8.63;;
21890;SDS011;11110;52.386;16.940;2023-09-18T02:28:07;15.82;;;8.57;;
21890;SDS011;11110;52.386;16.940;2023-09-18T02:30:37;19.77;;;8.80;;
21890;SDS011;11110;52.386;16.940;2023-09-18T02:33:05;20.85;;;8.73;;
21890;SDS011;11110;52.386;16.940;2023-09-18T02:35:34;16.08;;;8.65;;
21890;SDS011;11110;52.386;16.940;2023-09-18T02:38:03;22.17;;;10.63;;
21890;SDS011;11110;52.386;16.940;2023-09-18T02:40:32;22.15;;;10.70;;
21890;SDS011;11110;52.386;16.940;2023-09-18T02:43:02;18.88;;;10.38;;
21890;SDS011;11110;52.386;16.940;2023-09-18T02:45:31;24.23;;;10.73;;
21890;SDS011;11110;52.386;16.940;2023-09-18T02:47:59;18.92;;;10.52;;
21890;SDS011;11110;52.386;16.940;2023-09-18T02:50:28;23.65;;;10.90;;
21890;SDS011;11110;52.386;16.940;2023-09-18T02:52:57;22.75;;;10.43;;
21890;SDS011;11110;52.386;16.940;2023-09-18T02:55:26;17.83;;;9.32;;
21890;SDS011;11110;52.386;16.940;2023-09-18T02:57:55;16.73;;;8.70;;
21890;SDS011;11110;52.386;16.940;2023-09-18T03:00:24;15.00;;;8.07;;
21890;SDS011;11110;52.386;16.940;2023-09-18T03:03:09;21.83;;;8.82;;
21890;SDS011;11110;52.386;16.940;2023-09-18T03:05:40;18.63;;;9.50;;
21890;SDS011;11110;52.386;16.940;2023-09-18T03:08:09;17.70;;;8.77;;
21890;SDS011;11110;52.386;16.940;2023-09-18T03:10:40;14.77;;;8.23;;
21890;SDS011;11110;52.386;16.940;2023-09-18T03:13:10;17.02;;;9.50;;
21890;SDS011;11110;52.386;16.940;2023-09-18T03:15:47;19.48;;;9.50;;
21890;SDS011;11110;52.386;16.940;2023-09-18T03:18:18;17.58;;;9.80;;
21890;SDS011;11110;52.386;16.940;2023-09-18T03:20:47;18.13;;;8.88;;
21890;SDS011;11110;52.386;16.940;2023-09-18T03:23:15;15.50;;;8.48;;
21890;SDS011;11110;52.386;16.940;2023-09-18T03:25:44;16.42;;;8.70;;
21890;SDS011;11110;52.386;16.940;2023-09-18T03:28:18;20.65;;;9.32;;
21890;SDS011;11110;52.386;16.940;2023-09-18T03:30:49;20.45;;;9.98;;
21890;SDS011;11110;52.386;16.940;2023-09-18T03:33:21;27.77;;;10.60;;
21890;SDS011;11110;52.386;16.940;2023-09-18T03:35:51;21.80;;;10.82;;
21890;SDS011;11110;52.386;16.940;2023-09-18T03:38:24;24.70;;;11.68;;
21890;SDS011;11110;52.386;16.940;2023-09-18T03:40:54;19.80;;;10.55;;
21890;SDS011;11110;52.386;16.940;2023-09-18T03:43:22;21.02;;;9.48;;
21890;SDS011;11110;52.386;16.940;2023-09-18T03:45:52;18.48;;;8.60;;
21890;SDS011;11110;52.386;16.940;2023-09-18T03:48:21;21.80;;;10.10;;
21890;SDS011;11110;52.386;16.940;2023-09-18T03:50:51;20.05;;;11.63;;
21890;SDS011;11110;52.386;16.940;2023-09-18T03:53:19;22.10;;;11.68;;
21890;SDS011;11110;52.386;16.940;2023-09-18T03:55:48;23.95;;;10.98;;
21890;SDS011;11110;52.386;16.940;2023-09-18T03:58:17;18.13;;;10.27;;
21890;SDS011;11110;52.386;16.940;2023-09-18T04:00:47;17.33;;;9.23;;
21890;SDS011;11110;52.386;16.940;2023-09-18T04:03:17;21.13;;;11.77;;
21890;SDS011;11110;52.386;16.940;2023-09-18T04:05:46;21.88;;;11.27;;
21890;SDS011;11110;52.386;16.940;2023-09-18T04:08:14;20.25;;;10.50;;
21890;SDS011;11110;52.386;16.940;2023-09-18T04:10:43;19.52;;;9.60;;
21890;SDS011;11110;52.386;16.940;2023-09-18T04:13:12;19.88;;;10.90;;
21890;SDS011;11110;52.386;16.940;2023-09-18T04:15:40;23.40;;;12.68;;
21890;SDS011;11110;52.386;16.940;2023-09-18T04:18:09;21.05;;;11.90;;
21890;SDS011;11110;52.386;16.940;2023-09-18T04:20:39;28.05;;;11.73;;
21890;SDS011;11110;52.386;16.940;2023-09-18T04:23:18;20.95;;;12.27;;
21890;SDS011;11110;52.386;16.940;2023-09-18T04:25:50;25.55;;;12.00;;
21890;SDS011;11110;52.386;16.940;2023-09-18T04:28:20;22.38;;;12.00;;
21890;SDS011;11110;52.386;16.940;2023-09-18T04:30:50;24.27;;;13.70;;
21890;SDS011;11110;52.386;16.940;2023-09-18T04:33:20;27.42;;;13.93;;
21890;SDS011;11110;52.386;16.940;2023-09-18T04:35:51;24.15;;;12.30;;
21890;SDS011;11110;52.386;16.940;2023-09-18T04:38:19;19.25;;;11.90;;
21890;SDS011;11110;52.386;16.940;2023-09-18T04:40:48;26.38;;;13.63;;
21890;SDS011;11110;52.386;16.940;2023-09-18T04:43:17;29.73;;;13.57;;
21890;SDS011;11110;52.386;16.940;2023-09-18T04:45:46;23.98;;;12.95;;
21890;SDS011;11110;52.386;16.940;2023-09-18T04:48:15;25.23;;;12.55;;
21890;SDS011;11110;52.386;16.940;2023-09-18T04:50:43;17.83;;;11.40;;
21890;SDS011;11110;52.386;16.940;2023-09-18T04:53:13;22.92;;;11.98;;
21890;SDS011;11110;52.386;16.940;2023-09-18T04:55:42;26.73;;;12.23;;
21890;SDS011;11110;52.386;16.940;2023-09-18T04:58:11;27.90;;;13.60;;
21890;SDS011;11110;52.386;16.940;2023-09-18T05:00:40;25.45;;;11.77;;
21890;SDS011;11110;52.386;16.940;2023-09-18T05:03:08;20.50;;;12.02;;
21890;SDS011;11110;52.386;16.940;2023-09-18T05:05:38;23.17;;;11.30;;
21890;SDS011;11110;52.386;16.940;2023-09-18T05:08:07;19.42;;;11.55;;
21890;SDS011;11110;52.386;16.940;2023-09-18T05:10:37;27.45;;;11.82;;
21890;SDS011;11110;52.386;16.940;2023-09-18T05:13:06;20.08;;;11.50;;
21890;SDS011;11110;52.386;16.940;2023-09-18T05:15:35;23.88;;;12.02;;
21890;SDS011;11110;52.386;16.940;2023-09-18T05:18:04;31.80;;;13.48;;
21890;SDS011;11110;52.386;16.940;2023-09-18T05:20:34;40.50;;;15.23;;
21890;SDS011;11110;52.386;16.940;2023-09-18T05:23:03;31.27;;;13.80;;
21890;SDS011;11110;52.386;16.940;2023-09-18T05:25:33;36.72;;;13.85;;
21890;SDS011;11110;52.386;16.940;2023-09-18T05:28:06;30.95;;;12.45;;
21890;SDS011;11110;52.386;16.940;2023-09-18T05:30:35;33.08;;;13.10;;
21890;SDS011;11110;52.386;16.940;2023-09-18T05:33:05;30.63;;;14.48;;
21890;SDS011;11110;52.386;16.940;2023-09-18T05:35:36;29.95;;;13.98;;
21890;SDS011;11110;52.386;16.940;2023-09-18T05:38:08;27.35;;;13.60;;
21890;SDS011;11110;52.386;16.940;2023-09-18T05:40:38;45.30;;;14.68;;
21890;SDS011;11110;52.386;16.940;2023-09-18T05:43:08;40.85;;;13.07;;
21890;SDS011;11110;52.386;16.940;2023-09-18T05:45:36;31.77;;;13.35;;
21890;SDS011;11110;52.386;16.940;2023-09-18T05:48:05;27.92;;;14.68;;
21890;SDS011;11110;52.386;16.940;2023-09-18T05:50:35;26.63;;;14.15;;
21890;SDS011;11110;52.386;16.940;2023-09-18T05:53:03;24.77;;;13.52;;
21890;SDS011;11110;52.386;16.940;2023-09-18T05:55:33;28.45;;;14.40;;
21890;SDS011;11110;52.386;16.940;2023-09-18T05:58:02;25.08;;;13.75;;
21890;SDS011;11110;52.386;16.940;2023-09-18T06:00:35;23.02;;;12.90;;
21890;SDS011;11110;52.386;16.940;2023-09-18T06:03:04;28.88;;;14.20;;
21890;SDS011;11110;52.386;16.940;2023-09-18T06:05:34;24.25;;;13.93;;
21890;SDS011;11110;52.386;16.940;2023-09-18T06:08:02;25.77;;;13.55;;
21890;SDS011;11110;52.386;16.940;2023-09-18T06:10:33;23.80;;;14.23;;
21890;SDS011;11110;52.386;16.940;2023-09-18T06:13:01;28.08;;;13.85;;
21890;SDS011;11110;52.386;16.940;2023-09-18T06:15:33;26.10;;;13.90;;
21890;SDS011;11110;52.386;16.940;2023-09-18T06:18:03;24.60;;;13.70;;
21890;SDS011;11110;52.386;16.940;2023-09-18T06:20:33;22.67;;;12.98;;
21890;SDS011;11110;52.386;16.940;2023-09-18T06:23:02;22.30;;;14.48;;
21890;SDS011;11110;52.386;16.940;2023-09-18T06:25:33;27.38;;;14.77;;
21890;SDS011;11110;52.386;16.940;2023-09-18T06:28:04;24.23;;;13.48;;
21890;SDS011;11110;52.386;16.940;2023-09-18T06:30:34;23.20;;;13.73;;
21890;SDS011;11110;52.386;16.940;2023-09-18T06:33:03;28.48;;;13.95;;
21890;SDS011;11110;52.386;16.940;2023-09-18T06:35:32;27.85;;;14.32;;
21890;SDS011;11110;52.386;16.940;2023-09-18T06:38:00;23.73;;;12.32;;
21890;SDS011;11110;52.386;16.940;2023-09-18T06:40:29;25.45;;;13.23;;
21890;SDS011;11110;52.386;16.940;2023-09-18T06:42:58;24.02;;;13.55;;
21890;SDS011;11110;52.386;16.940;2023-09-18T06:45:27;22.75;;;12.63;;
21890;SDS011;11110;52.386;16.940;2023-09-18T06:47:57;22.40;;;12.45;;
21890;SDS011;11110;52.386;16.940;2023-09-18T06:50:27;19.65;;;12.82;;
21890;SDS011;11110;52.386;16.940;2023-09-18T06:52:55;21.48;;;12.18;;
21890;SDS011;11110;52.386;16.940;2023-09-18T06:55:24;21.10;;;12.18;;
21890;SDS011;11110;52.386;16.940;2023-09-18T06:57:53;21.17;;;12.05;;
21890;SDS011;11110;52.386;16.940;2023-09-18T07:00:21;21.60;;;11.77;;
21890;SDS011;11110;52.386;16.940;2023-09-18T07:02:50;22.65;;;12.60;;
21890;SDS011;11110;52.386;16.940;2023-09-18T07:05:21;22.67;;;12.20;;
21890;SDS011;11110;52.386;16.940;2023-09-18T07:07:49;21.02;;;11.60;;
21890;SDS011;11110;52.386;16.940;2023-09-18T07:10:18;24.38;;;12.20;;
21890;SDS011;11110;52.386;16.940;2023-09-18T07:12:46;19.40;;;11.52;;
21890;SDS011;11110;52.386;16.940;2023-09-18T07:15:15;26.17;;;12.23;;
21890;SDS011;11110;52.386;16.940;2023-09-18T07:17:44;22.55;;;11.73;;
21890;SDS011;11110;52.386;16.940;2023-09-18T07:20:13;20.00;;;11.50;;
21890;SDS011;11110;52.386;16.940;2023-09-18T07:22:46;22.27;;;11.02;;
21890;SDS011;11110;52.386;16.940;2023-09-18T07:25:17;23.58;;;11.55;;
21890;SDS011;11110;52.386;16.940;2023-09-18T07:27:45;23.17;;;11.70;;
21890;SDS011;11110;52.386;16.940;2023-09-18T07:30:14;19.70;;;11.18;;
21890;SDS011;11110;52.386;16.940;2023-09-18T07:32:44;20.38;;;12.25;;
21890;SDS011;11110;52.386;16.940;2023-09-18T07:35:13;21.17;;;11.05;;
21890;SDS011;11110;52.386;16.940;2023-09-18T07:37:43;19.30;;;9.95;;
21890;SDS011;11110;52.386;16.940;2023-09-18T07:40:15;20.65;;;11.27;;
21890;SDS011;11110;52.386;16.940;2023-09-18T07:42:43;19.63;;;10.27;;
21890;SDS011;11110;52.386;16.940;2023-09-18T07:45:12;21.95;;;10.57;;
21890;SDS011;11110;52.386;16.940;2023-09-18T07:47:41;17.88;;;10.07;;
21890;SDS011;11110;52.386;16.940;2023-09-18T07:50:10;15.77;;;9.70;;
21890;SDS011;11110;52.386;16.940;2023-09-18T07:52:44;19.10;;;10.60;;
21890;SDS011;11110;52.386;16.940;2023-09-18T07:55:14;18.95;;;10.00;;
21890;SDS011;11110;52.386;16.940;2023-09-18T07:57:43;15.35;;;9.55;;
21890;SDS011;11110;52.386;16.940;2023-09-18T08:00:12;22.73;;;10.52;;
21890;SDS011;11110;52.386;16.940;2023-09-18T08:02:42;20.15;;;9.60;;
21890;SDS011;11110;52.386;16.940;2023-09-18T08:05:11;18.80;;;10.05;;
21890;SDS011;11110;52.386;16.940;2023-09-18T08:07:40;17.75;;;9.77;;
21890;SDS011;11110;52.386;16.940;2023-09-18T08:10:09;17.67;;;10.05;;
21890;SDS011;11110;52.386;16.940;2023-09-18T08:12:40;17.35;;;10.68;;
21890;SDS011;11110;52.386;16.940;2023-09-18T08:15:09;21.42;;;10.20;;
21890;SDS011;11110;52.386;16.940;2023-09-18T08:17:37;18.55;;;10.00;;
21890;SDS011;11110;52.386;16.940;2023-09-18T08:20:08;18.48;;;9.77;;
21890;SDS011;11110;52.386;16.940;2023-09-18T08:22:39;17.08;;;9.65;;
21890;SDS011;11110;52.386;16.940;2023-09-18T08:25:08;24.25;;;8.95;;
21890;SDS011;11110;52.386;16.940;2023-09-18T08:27:38;18.63;;;8.52;;
21890;SDS011;11110;52.386;16.940;2023-09-18T08:30:11;22.50;;;9.43;;
21890;SDS011;11110;52.386;16.940;2023-09-18T08:32:40;17.17;;;7.97;;
21890;SDS011;11110;52.386;16.940;2023-09-18T08:35:10;16.35;;;8.35;;
21890;SDS011;11110;52.386;16.940;2023-09-18T08:37:39;20.25;;;9.18;;
21890;SDS011;11110;52.386;16.940;2023-09-18T08:40:09;19.50;;;8.65;;
21890;SDS011;11110;52.386;16.940;2023-09-18T08:42:40;15.73;;;8.18;;
21890;SDS011;11110;52.386;16.940;2023-09-18T08:45:19;15.13;;;8.02;;
21890;SDS011;11110;52.386;16.940;2023-09-18T08:47:53;19.33;;;8.50;;
21890;SDS011;11110;52.386;16.940;2023-09-18T08:50:24;13.60;;;8.18;;
21890;SDS011;11110;52.386;16.940;2023-09-18T08:52:53;15.57;;;8.10;;
21890;SDS011;11110;52.386;16.940;2023-09-18T08:55:23;13.15;;;7.78;;
21890;SDS011;11110;52.386;16.940;2023-09-18T08:57:52;17.85;;;8.23;;
21890;SDS011;11110;52.386;16.940;2023-09-18T09:00:25;15.73;;;8.40;;
21890;SDS011;11110;52.386;16.940;2023-09-18T09:02:53;13.93;;;7.70;;
21890;SDS011;11110;52.386;16.940;2023-09-18T09:05:23;19.00;;;8.43;;
21890;SDS011;11110;52.386;16.940;2023-09-18T09:07:52;15.82;;;8.48;;
21890;SDS011;11110;52.386;16.940;2023-09-18T09:10:21;18.10;;;8.52;;
21890;SDS011;11110;52.386;16.940;2023-09-18T09:12:53;16.27;;;8.15;;
21890;SDS011;11110;52.386;16.940;2023-09-18T09:15:26;13.15;;;8.10;;
21890;SDS011;11110;52.386;16.940;2023-09-18T09:18:03;15.35;;;8.63;;
21890;SDS011;11110;52.386;16.940;2023-09-18T09:20:33;11.43;;;7.15;;
21890;SDS011;11110;52.386;16.940;2023-09-18T09:23:03;14.13;;;8.00;;
21890;SDS011;11110;52.386;16.940;2023-09-18T09:25:33;16.38;;;8.88;;
21890;SDS011;11110;52.386;16.940;2023-09-18T09:28:03;15.50;;;8.77;;
21890;SDS011;11110;52.386;16.940;2023-09-18T09:30:34;13.75;;;7.88;;
21890;SDS011;11110;52.386;16.940;2023-09-18T09:33:04;17.65;;;8.35;;
21890;SDS011;11110;52.386;16.940;2023-09-18T09:35:34;25.58;;;14.48;;
21890;SDS011;11110;52.386;16.940;2023-09-18T09:38:07;18.80;;;9.95;;
21890;SDS011;11110;52.386;16.940;2023-09-18T09:40:38;16.40;;;8.63;;
21890;SDS011;11110;52.386;16.940;2023-09-18T09:43:08;15.73;;;8.85;;
21890;SDS011;11110;52.386;16.940;2023-09-18T09:45:39;13.77;;;7.80;;
21890;SDS011;11110;52.386;16.940;2023-09-18T09:48:09;11.95;;;7.28;;
21890;SDS011;11110;52.386;16.940;2023-09-18T09:50:43;12.82;;;6.88;;
21890;SDS011;11110;52.386;16.940;2023-09-18T09:53:14;17.02;;;7.93;;
21890;SDS011;11110;52.386;16.940;2023-09-18T09:55:42;12.50;;;7.13;;
21890;SDS011;11110;52.386;16.940;2023-09-18T09:58:11;13.05;;;7.30;;
21890;SDS011;11110;52.386;16.940;2023-09-18T10:00:43;12.52;;;7.05;;
21890;SDS011;11110;52.386;16.940;2023-09-18T10:03:16;13.50;;;7.72;;
21890;SDS011;11110;52.386;16.940;2023-09-18T10:05:47;13.95;;;7.85;;
21890;SDS011;11110;52.386;16.940;2023-09-18T10:08:21;13.70;;;7.32;;
21890;SDS011;11110;52.386;16.940;2023-09-18T10:10:53;12.65;;;7.30;;
21890;SDS011;11110;52.386;16.940;2023-09-18T10:13:23;14.73;;;7.53;;
21890;SDS011;11110;52.386;16.940;2023-09-18T10:15:58;15.45;;;7.28;;
21890;SDS011;11110;52.386;16.940;2023-09-18T10:18:31;14.57;;;7.40;;
21890;SDS011;11110;52.386;16.940;2023-09-18T10:21:10;12.80;;;6.88;;
21890;SDS011;11110;52.386;16.940;2023-09-18T10:23:55;10.30;;;6.57;;
21890;SDS011;11110;52.386;16.940;2023-09-18T10:26:27;8.88;;;6.22;;
21890;SDS011;11110;52.386;16.940;2023-09-18T10:29:00;13.30;;;6.22;;
21890;SDS011;11110;52.386;16.940;2023-09-18T10:31:33;10.15;;;6.72;;
21890;SDS011;11110;52.386;16.940;2023-09-18T10:34:04;14.88;;;7.68;;
21890;SDS011;11110;52.386;16.940;2023-09-18T10:36:34;10.60;;;6.18;;
21890;SDS011;11110;52.386;16.940;2023-09-18T10:39:04;11.52;;;6.90;;
21890;SDS011;11110;52.386;16.940;2023-09-18T10:41:35;13.43;;;7.22;;
21890;SDS011;11110;52.386;16.940;2023-09-18T10:44:05;10.50;;;6.90;;
21890;SDS011;11110;52.386;16.940;2023-09-18T10:46:36;11.38;;;6.35;;
21890;SDS011;11110;52.386;16.940;2023-09-18T10:49:05;10.75;;;6.80;;
21890;SDS011;11110;52.386;16.940;2023-09-18T10:51:34;9.75;;;6.22;;
21890;SDS011;11110;52.386;16.940;2023-09-18T10:54:07;11.32;;;6.47;;
21890;SDS011;11110;52.386;16.940;2023-09-18T10:56:41;14.43;;;8.25;;
21890;SDS011;11110;52.386;16.940;2023-09-18T10:59:09;14.77;;;7.45;;
21890;SDS011;11110;52.386;16.940;2023-09-18T11:01:40;13.75;;;7.10;;
21890;SDS011;11110;52.386;16.940;2023-09-18T11:04:09;12.60;;;6.28;;
21890;SDS011;11110;52.386;16.940;2023-09-18T11:09:32;12.13;;;6.57;;
21890;SDS011;11110;52.386;16.940;2023-09-18T11:12:09;9.65;;;6.20;;
21890;SDS011;11110;52.386;16.940;2023-09-18T11:14:42;13.20;;;6.20;;
21890;SDS011;11110;52.386;16.940;2023-09-18T11:17:30;10.50;;;6.03;;
21890;SDS011;11110;52.386;16.940;2023-09-18T11:20:04;9.07;;;6.32;;
21890;SDS011;11110;52.386;16.940;2023-09-18T11:22:36;10.95;;;6.57;;
21890;SDS011;11110;52.386;16.940;2023-09-18T11:27:57;12.85;;;6.40;;
21890;SDS011;11110;52.386;16.940;2023-09-18T11:30:26;11.63;;;6.47;;
21890;SDS011;11110;52.386;16.940;2023-09-18T11:32:57;11.77;;;6.95;;
21890;SDS011;11110;52.386;16.940;2023-09-18T11:35:25;11.25;;;6.18;;
21890;SDS011;11110;52.386;16.940;2023-09-18T11:38:02;8.43;;;5.75;;
21890;SDS011;11110;52.386;16.940;2023-09-18T11:40:33;13.02;;;5.68;;
21890;SDS011;11110;52.386;16.940;2023-09-18T11:43:21;12.38;;;7.30;;
21890;SDS011;11110;52.386;16.940;2023-09-18T11:45:52;14.70;;;7.07;;
21890;SDS011;11110;52.386;16.940;2023-09-18T11:48:24;9.35;;;5.85;;
21890;SDS011;11110;52.386;16.940;2023-09-18T11:50:56;11.48;;;6.15;;
21890;SDS011;11110;52.386;16.940;2023-09-18T11:53:26;12.60;;;6.90;;
21890;SDS011;11110;52.386;16.940;2023-09-18T11:55:55;11.73;;;5.63;;
21890;SDS011;11110;52.386;16.940;2023-09-18T11:58:25;13.38;;;5.97;;
21890;SDS011;11110;52.386;16.940;2023-09-18T12:00:53;10.40;;;5.75;;
21890;SDS011;11110;52.386;16.940;2023-09-18T12:03:24;10.98;;;5.95;;
21890;SDS011;11110;52.386;16.940;2023-09-18T12:05:54;14.60;;;6.05;;
21890;SDS011;11110;52.386;16.940;2023-09-18T12:08:24;10.70;;;6.63;;
21890;SDS011;11110;52.386;16.940;2023-09-18T12:10:54;8.55;;;5.18;;
21890;SDS011;11110;52.386;16.940;2023-09-18T12:13:24;8.43;;;5.50;;
21890;SDS011;11110;52.386;16.940;2023-09-18T12:15:57;12.35;;;6.53;;
21890;SDS011;11110;52.386;16.940;2023-09-18T12:18:28;12.60;;;6.57;;
21890;SDS011;11110;52.386;16.940;2023-09-18T12:20:57;11.48;;;7.00;;
21890;SDS011;11110;52.386;16.940;2023-09-18T12:23:26;9.32;;;5.78;;
21890;SDS011;11110;52.386;16.940;2023-09-18T12:25:57;12.40;;;6.45;;
21890;SDS011;11110;52.386;16.940;2023-09-18T12:28:28;15.25;;;6.20;;
21890;SDS011;11110;52.386;16.940;2023-09-18T12:30:57;10.40;;;6.28;;
21890;SDS011;11110;52.386;16.940;2023-09-18T12:33:35;9.68;;;6.38;;
21890;SDS011;11110;52.386;16.940;2023-09-18T12:36:04;9.50;;;6.20;;
21890;SDS011;11110;52.386;16.940;2023-09-18T12:38:34;11.25;;;6.45;;
21890;SDS011;11110;52.386;16.940;2023-09-18T12:41:04;10.90;;;5.55;;
21890;SDS011;11110;52.386;16.940;2023-09-18T12:43:37;10.20;;;5.70;;
21890;SDS011;11110;52.386;16.940;2023-09-18T12:46:08;7.15;;;5.47;;
21890;SDS011;11110;52.386;16.940;2023-09-18T12:48:39;10.43;;;6.55;;
21890;SDS011;11110;52.386;16.940;2023-09-18T12:51:12;10.23;;;7.22;;
21890;SDS011;11110;52.386;16.940;2023-09-18T12:53:43;7.90;;;5.45;;
21890;SDS011;11110;52.386;16.940;2023-09-18T12:56:12;10.10;;;6.13;;
21890;SDS011;11110;52.386;16.940;2023-09-18T12:58:41;7.43;;;5.63;;
21890;SDS011;11110;52.386;16.940;2023-09-18T13:01:31;9.20;;;5.35;;
21890;SDS011;11110;52.386;16.940;2023-09-18T13:04:01;8.75;;;5.55;;
21890;SDS011;11110;52.386;16.940;2023-09-18T13:06:32;7.70;;;5.72;;
21890;SDS011;11110;52.386;16.940;2023-09-18T13:09:16;14.35;;;7.38;;
21890;SDS011;11110;52.386;16.940;2023-09-18T13:11:53;11.05;;;6.35;;
21890;SDS011;11110;52.386;16.940;2023-09-18T13:14:22;7.70;;;5.85;;
21890;SDS011;11110;52.386;16.940;2023-09-18T13:16:51;9.43;;;6.35;;
21890;SDS011;11110;52.386;16.940;2023-09-18T13:19:21;10.90;;;6.10;;
21890;SDS011;11110;52.386;16.940;2023-09-18T13:21:49;8.63;;;6.07;;
21890;SDS011;11110;52.386;16.940;2023-09-18T13:24:26;9.55;;;6.45;;
21890;SDS011;11110;52.386;16.940;2023-09-18T13:26:55;11.48;;;6.68;;
21890;SDS011;11110;52.386;16.940;2023-09-18T13:29:26;8.43;;;6.18;;
21890;SDS011;11110;52.386;16.940;2023-09-18T13:31:54;13.43;;;7.38;;
21890;SDS011;11110;52.386;16.940;2023-09-18T13:34:24;10.45;;;6.13;;
21890;SDS011;11110;52.386;16.940;2023-09-18T13:36:52;12.88;;;6.95;;
21890;SDS011;11110;52.386;16.940;2023-09-18T13:39:21;10.45;;;6.28;;
21890;SDS011;11110;52.386;16.940;2023-09-18T13:41:50;9.52;;;6.43;;
21890;SDS011;11110;52.386;16.940;2023-09-18T13:44:18;10.52;;;7.13;;
21890;SDS011;11110;52.386;16.940;2023-09-18T13:46:48;12.23;;;6.38;;
21890;SDS011;11110;52.386;16.940;2023-09-18T13:49:17;11.38;;;7.70;;
21890;SDS011;11110;52.386;16.940;2023-09-18T13:51:47;11.15;;;7.32;;
21890;SDS011;11110;52.386;16.940;2023-09-18T13:54:17;12.45;;;6.95;;
21890;SDS011;11110;52.386;16.940;2023-09-18T13:56:45;11.32;;;7.30;;
21890;SDS011;11110;52.386;16.940;2023-09-18T13:59:14;12.18;;;7.90;;
21890;SDS011;11110;52.386;16.940;2023-09-18T14:01:43;9.35;;;6.60;;
21890;SDS011;11110;52.386;16.940;2023-09-18T14:04:11;9.23;;;7.07;;
21890;SDS011;11110;52.386;16.940;2023-09-18T14:06:40;10.30;;;7.15;;
21890;SDS011;11110;52.386;16.940;2023-09-18T14:09:11;12.30;;;7.03;;
21890;SDS011;11110;52.386;16.940;2023-09-18T14:11:39;11.05;;;7.25;;
21890;SDS011;11110;52.386;16.940;2023-09-18T14:14:08;11.55;;;7.60;;
21890;SDS011;11110;52.386;16.940;2023-09-18T14:16:37;11.95;;;7.53;;
21890;SDS011;11110;52.386;16.940;2023-09-18T14:19:06;12.85;;;7.40;;
21890;SDS011;11110;52.386;16.940;2023-09-18T14:21:37;11.82;;;7.38;;
21890;SDS011;11110;52.386;16.940;2023-09-18T14:24:07;11.90;;;7.63;;
21890;SDS011;11110;52.386;16.940;2023-09-18T14:26:37;10.77;;;7.75;;
21890;SDS011;11110;52.386;16.940;2023-09-18T14:29:08;11.30;;;8.02;;
21890;SDS011;11110;52.386;16.940;2023-09-18T14:31:37;14.43;;;8.23;;
21890;SDS011;11110;52.386;16.940;2023-09-18T14:34:05;15.27;;;8.27;;
21890;SDS011;11110;52.386;16.940;2023-09-18T14:36:35;12.63;;;8.18;;
21890;SDS011;11110;52.386;16.940;2023-09-18T14:39:04;13.60;;;8.35;;
21890;SDS011;11110;52.386;16.940;2023-09-18T14:41:35;13.02;;;7.97;;
21890;SDS011;11110;52.386;16.940;2023-09-18T14:44:06;11.40;;;8.95;;
21890;SDS011;11110;52.386;16.940;2023-09-18T14:46:35;12.65;;;8.90;;